Terminal Aerodrome Forecast
Issued by NWS Cleveland, OH

Home | Current Version | Previous Version | Graphics & Text | Print | Product List | Glossary On
Versions: 1 2 3 4 5 6 7 8 9 10 11 12 13 14 15 16 17 18 19 20
212
FTUS41 KCLE 061136
TAFERI
TAF
KERI 061136Z 0612/0712 10012KT P6SM OVC150
     FM061800 12015G25KT P6SM -RA OVC030
     FM062100 12015G25KT 3SM -RA BR OVC008
     FM070300 21012KT P6SM OVC015
     FM070600 25012G20KT P6SM SCT015 OVC025=

USA.gov is the U.S. government's official web portal to all federal, state and local government web resources and services.